createdAt,value
2016-07-06T00:00:20.839Z,1008.15
2016-07-06T00:01:20.816Z,1008.16
2016-07-06T00:02:20.793Z,1008.16
2016-07-06T00:03:20.768Z,1008.2
2016-07-06T00:04:20.748Z,1008.2
2016-07-06T00:05:20.725Z,1008.2
2016-07-06T00:06:20.704Z,1008.16
2016-07-06T00:07:20.681Z,1008.21
2016-07-06T00:08:20.658Z,1008.15
2016-07-06T00:09:20.636Z,1008.17
2016-07-06T00:10:20.613Z,1008.1
2016-07-06T00:11:20.590Z,1008.15
2016-07-06T00:12:20.569Z,1008.15
2016-07-06T00:13:20.545Z,1008.2
2016-07-06T00:14:20.524Z,1008.2
2016-07-06T00:15:20.499Z,1008.21
2016-07-06T00:16:20.477Z,1008.17
2016-07-06T00:17:20.455Z,1008.1
2016-07-06T00:18:20.431Z,1008.15
2016-07-06T00:19:20.410Z,1008.15
2016-07-06T00:20:20.386Z,1008.17
2016-07-06T00:21:20.363Z,1008.15
2016-07-06T00:22:20.341Z,1008.17
2016-07-06T00:23:20.318Z,1008.15
2016-07-06T00:24:20.292Z,1008.21
2016-07-06T00:25:20.272Z,1008.2
2016-07-06T00:26:20.247Z,1008.18
2016-07-06T00:27:20.226Z,1008.18
2016-07-06T00:28:20.202Z,1008.17
2016-07-06T00:29:20.177Z,1008.14
2016-07-06T00:30:20.160Z,1008.19
2016-07-06T00:31:20.136Z,1008.19
2016-07-06T00:32:20.114Z,1008.23
2016-07-06T00:33:20.085Z,1008.31
2016-07-06T00:34:20.068Z,1008.31
2016-07-06T00:35:20.044Z,1008.22
2016-07-06T00:36:20.023Z,1008.24
2016-07-06T00:37:19.999Z,1008.22
2016-07-06T00:38:19.974Z,1008.2
2016-07-06T00:39:19.954Z,1008.19
2016-07-06T00:40:19.931Z,1008.22
2016-07-06T00:41:19.908Z,1008.18
2016-07-06T00:42:19.887Z,1008.17
2016-07-06T00:43:19.862Z,1008.2
2016-07-06T00:44:19.840Z,1008.22
2016-07-06T00:45:19.816Z,1008.2
2016-07-06T00:46:19.794Z,1008.25
2016-07-06T00:47:19.772Z,1008.23
2016-07-06T00:48:19.747Z,1008.29
2016-07-06T00:49:19.726Z,1008.26
2016-07-06T00:50:19.702Z,1008.27
2016-07-06T00:51:19.680Z,1008.24
2016-07-06T00:52:19.651Z,1008.27
2016-07-06T00:53:19.629Z,1008.23
2016-07-06T00:54:19.606Z,1008.22
2016-07-06T00:55:19.586Z,1008.22
2016-07-06T00:56:19.564Z,1008.19
2016-07-06T00:57:19.542Z,1008.23
2016-07-06T00:58:19.528Z,1008.2
2016-07-06T00:59:19.495Z,1008.23
2016-07-06T01:00:19.473Z,1008.2
2016-07-06T01:01:19.450Z,1008.25
2016-07-06T01:02:19.427Z,1008.23
2016-07-06T01:03:19.405Z,1008.25
2016-07-06T01:04:19.381Z,1008.21
2016-07-06T01:05:19.358Z,1008.18
2016-07-06T01:06:19.335Z,1008.21
2016-07-06T01:07:19.311Z,1008.18
2016-07-06T01:08:19.284Z,1008.22
2016-07-06T01:09:19.299Z,1008.24
2016-07-06T01:10:19.299Z,1008.24
2016-07-06T01:11:19.279Z,1008.25
2016-07-06T01:12:19.198Z,1008.26
2016-07-06T01:13:19.174Z,1008.22
2016-07-06T01:14:19.152Z,1008.22
2016-07-06T01:15:19.123Z,1008.27
2016-07-06T01:16:19.105Z,1008.28
2016-07-06T01:17:19.081Z,1008.22
2016-07-06T01:18:19.058Z,1008.24
2016-07-06T01:19:19.032Z,1008.26
2016-07-06T01:20:19.013Z,1008.29
2016-07-06T01:21:18.985Z,1008.26
2016-07-06T01:22:18.967Z,1008.31
2016-07-06T01:23:18.943Z,1008.26
2016-07-06T01:24:18.916Z,1008.28
2016-07-06T01:25:18.893Z,1008.28
2016-07-06T01:26:18.873Z,1008.32
2016-07-06T01:27:18.852Z,1008.28
2016-07-06T01:28:18.830Z,1008.3
2016-07-06T01:29:18.802Z,1008.31
2016-07-06T01:30:18.784Z,1008.3
2016-07-06T01:31:18.756Z,1008.31
2016-07-06T01:32:18.738Z,1008.32
2016-07-06T01:33:18.710Z,1008.33
2016-07-06T01:34:18.691Z,1008.28
2016-07-06T01:35:18.668Z,1008.27
2016-07-06T01:36:18.646Z,1008.31
2016-07-06T01:37:18.623Z,1008.27
2016-07-06T01:38:18.599Z,1008.26
2016-07-06T01:39:18.575Z,1008.25
2016-07-06T01:40:18.559Z,1008.25
2016-07-06T01:41:18.530Z,1008.29
2016-07-06T01:42:18.507Z,1008.23
2016-07-06T01:43:18.483Z,1008.24
2016-07-06T01:44:18.460Z,1008.22
2016-07-06T01:45:18.438Z,1008.19
2016-07-06T01:46:18.412Z,1008.16
2016-07-06T01:47:18.389Z,1008.17
2016-07-06T01:48:18.368Z,1008.12
2016-07-06T01:49:18.347Z,1008.1
2016-07-06T01:50:18.322Z,1008.08
2016-07-06T01:51:18.298Z,1008.11
2016-07-06T01:52:18.275Z,1008.11
2016-07-06T01:53:18.251Z,1008.11
2016-07-06T01:54:18.230Z,1008.06
2016-07-06T01:55:18.203Z,1008.1
2016-07-06T01:56:18.179Z,1008.13
2016-07-06T01:57:18.159Z,1008.16
2016-07-06T01:58:18.132Z,1008.2
2016-07-06T01:59:18.115Z,1008.24
2016-07-06T02:00:18.091Z,1008.27
2016-07-06T02:01:18.067Z,1008.31
2016-07-06T02:02:18.044Z,1008.35
2016-07-06T02:03:18.022Z,1008.44
2016-07-06T02:04:18.000Z,1008.42
2016-07-06T02:05:17.973Z,1008.43
2016-07-06T02:06:17.953Z,1008.46
2016-07-06T02:07:17.929Z,1008.48
2016-07-06T02:08:17.904Z,1008.5
2016-07-06T02:09:17.882Z,1008.49
2016-07-06T02:10:17.860Z,1008.51
2016-07-06T02:11:17.831Z,1008.51
2016-07-06T02:12:17.814Z,1008.51
2016-07-06T02:13:17.783Z,1008.52
2016-07-06T02:14:17.761Z,1008.49
2016-07-06T02:15:17.738Z,1008.52
2016-07-06T02:16:17.719Z,1008.49
2016-07-06T02:17:17.696Z,1008.49
2016-07-06T02:18:17.673Z,1008.5
2016-07-06T02:19:17.648Z,1008.53
2016-07-06T02:20:17.626Z,1008.55
2016-07-06T02:21:17.603Z,1008.56
2016-07-06T02:22:17.580Z,1008.55
2016-07-06T02:23:17.555Z,1008.51
2016-07-06T02:24:17.535Z,1008.56
2016-07-06T02:25:17.510Z,1008.57
2016-07-06T02:26:17.487Z,1008.56
2016-07-06T02:27:17.464Z,1008.53
2016-07-06T02:28:17.441Z,1008.57
2016-07-06T02:29:17.419Z,1008.51
2016-07-06T02:30:17.395Z,1008.52
2016-07-06T02:31:17.372Z,1008.5
2016-07-06T02:32:17.349Z,1008.51
2016-07-06T02:33:17.328Z,1008.51
2016-07-06T02:34:17.302Z,1008.52
2016-07-06T02:35:17.275Z,1008.52
2016-07-06T02:36:17.257Z,1008.57
2016-07-06T02:37:17.236Z,1008.56
2016-07-06T02:38:17.210Z,1008.56
2016-07-06T02:39:17.187Z,1008.58
2016-07-06T02:40:17.166Z,1008.6
2016-07-06T02:41:17.141Z,1008.61
2016-07-06T02:42:17.118Z,1008.64
2016-07-06T02:43:17.096Z,1008.63
2016-07-06T02:44:17.072Z,1008.64
2016-07-06T02:45:17.044Z,1008.65
2016-07-06T02:46:17.026Z,1008.67
2016-07-06T02:47:16.999Z,1008.62
2016-07-06T02:48:16.977Z,1008.64
2016-07-06T02:49:16.957Z,1008.64
2016-07-06T02:50:16.932Z,1008.69
2016-07-06T02:51:16.913Z,1008.68
2016-07-06T02:52:16.888Z,1008.68
2016-07-06T02:53:16.867Z,1008.67
2016-07-06T02:54:16.844Z,1008.69
2016-07-06T02:55:16.821Z,1008.61
2016-07-06T02:56:16.798Z,1008.61
2016-07-06T02:57:16.775Z,1008.58
2016-07-06T02:58:16.756Z,1008.58
2016-07-06T02:59:16.731Z,1008.58
2016-07-06T03:00:16.709Z,1008.56
2016-07-06T03:01:16.685Z,1008.6
2016-07-06T03:02:16.662Z,1008.53
2016-07-06T03:03:16.640Z,1008.54
2016-07-06T03:04:16.617Z,1008.56
2016-07-06T03:05:16.599Z,1008.58
2016-07-06T03:06:16.571Z,1008.53
2016-07-06T03:07:16.549Z,1008.59
2016-07-06T03:08:16.525Z,1008.56
2016-07-06T03:09:16.503Z,1008.61
2016-07-06T03:10:16.482Z,1008.61
2016-07-06T03:11:16.459Z,1008.54
2016-07-06T03:12:16.432Z,1008.52
2016-07-06T03:13:16.409Z,1008.49
2016-07-06T03:14:16.395Z,1008.5
2016-07-06T03:15:16.366Z,1008.49
2016-07-06T03:16:16.340Z,1008.52
2016-07-06T03:17:16.317Z,1008.53
2016-07-06T03:18:16.295Z,1008.59
2016-07-06T03:19:16.272Z,1008.56
2016-07-06T03:20:16.252Z,1008.52
2016-07-06T03:21:16.227Z,1008.48
2016-07-06T03:22:16.208Z,1008.46
2016-07-06T03:23:16.185Z,1008.43
2016-07-06T03:24:16.163Z,1008.44
2016-07-06T03:25:16.136Z,1008.38
2016-07-06T03:26:16.117Z,1008.4
2016-07-06T03:27:16.095Z,1008.4
2016-07-06T03:28:16.076Z,1008.41
2016-07-06T03:29:16.049Z,1008.44
2016-07-06T03:30:16.026Z,1008.44
2016-07-06T03:31:16.004Z,1008.43
2016-07-06T03:32:15.981Z,1008.42
2016-07-06T03:33:15.959Z,1008.4
2016-07-06T03:34:15.936Z,1008.41
2016-07-06T03:35:15.914Z,1008.36
2016-07-06T03:36:15.890Z,1008.37
2016-07-06T03:37:15.868Z,1008.38
2016-07-06T03:38:15.846Z,1008.4
2016-07-06T03:39:15.823Z,1008.35
2016-07-06T03:40:15.801Z,1008.34
2016-07-06T03:41:15.778Z,1008.32
2016-07-06T03:42:15.754Z,1008.33
2016-07-06T03:43:15.727Z,1008.28
2016-07-06T03:44:15.710Z,1008.25
2016-07-06T03:45:15.684Z,1008.26
2016-07-06T03:46:15.665Z,1008.24
2016-07-06T03:47:15.641Z,1008.26
2016-07-06T03:48:15.618Z,1008.21
2016-07-06T03:49:15.594Z,1008.29
2016-07-06T03:50:15.571Z,1008.28
2016-07-06T03:51:15.546Z,1008.28
2016-07-06T03:52:15.529Z,1008.31
2016-07-06T03:53:15.501Z,1008.34
2016-07-06T03:54:15.483Z,1008.31
2016-07-06T03:55:15.462Z,1008.35
2016-07-06T03:56:15.438Z,1008.33
2016-07-06T03:57:15.416Z,1008.35
2016-07-06T03:58:15.391Z,1008.32
2016-07-06T03:59:15.368Z,1008.35
2016-07-06T04:00:15.346Z,1008.43
2016-07-06T04:01:15.326Z,1008.41
2016-07-06T04:02:15.298Z,1008.46
2016-07-06T04:03:15.281Z,1008.48
2016-07-06T04:04:15.260Z,1008.44
2016-07-06T04:05:15.236Z,1008.45
2016-07-06T04:06:15.213Z,1008.46
2016-07-06T04:07:15.187Z,1008.46
2016-07-06T04:08:15.170Z,1008.46
2016-07-06T04:09:15.141Z,1008.48
2016-07-06T04:10:15.123Z,1008.49
2016-07-06T04:11:15.099Z,1008.48
2016-07-06T04:12:15.081Z,1008.48
2016-07-06T04:13:15.055Z,1008.4
2016-07-06T04:14:15.030Z,1008.34
2016-07-06T04:15:15.010Z,1008.38
2016-07-06T04:16:14.986Z,1008.35
2016-07-06T04:17:14.964Z,1008.45
2016-07-06T04:18:14.943Z,1008.44
2016-07-06T04:19:14.920Z,1008.49
2016-07-06T04:20:14.897Z,1008.51
2016-07-06T04:21:14.871Z,1008.5
2016-07-06T04:22:14.859Z,1008.51
2016-07-06T04:23:14.842Z,1008.57
2016-07-06T04:24:14.805Z,1008.55
2016-07-06T04:25:14.785Z,1008.52
2016-07-06T04:26:14.763Z,1008.57
2016-07-06T04:27:14.735Z,1008.56
2016-07-06T04:28:14.718Z,1008.52
2016-07-06T04:29:14.692Z,1008.47
2016-07-06T04:30:14.669Z,1008.5
2016-07-06T04:31:14.648Z,1008.58
2016-07-06T04:32:14.626Z,1008.59
2016-07-06T04:33:14.602Z,1008.63
2016-07-06T04:34:14.585Z,1008.62
2016-07-06T04:35:14.564Z,1008.66
2016-07-06T04:36:14.540Z,1008.7
2016-07-06T04:37:14.518Z,1008.69
2016-07-06T04:38:14.496Z,1008.75
2016-07-06T04:39:14.476Z,1008.73
2016-07-06T04:40:14.451Z,1008.76
2016-07-06T04:41:14.427Z,1008.73
2016-07-06T04:42:14.408Z,1008.78
2016-07-06T04:43:14.386Z,1008.78
2016-07-06T04:44:14.365Z,1008.79
2016-07-06T04:45:14.343Z,1008.76
2016-07-06T04:46:14.317Z,1008.74
2016-07-06T04:47:14.301Z,1008.78
2016-07-06T04:48:14.279Z,1008.71
2016-07-06T04:49:14.257Z,1008.75
2016-07-06T04:50:14.237Z,1008.75
2016-07-06T04:51:14.215Z,1008.76
2016-07-06T04:52:14.194Z,1008.76
2016-07-06T04:53:14.172Z,1008.84
2016-07-06T04:54:14.151Z,1008.83
2016-07-06T04:55:14.129Z,1008.92
2016-07-06T04:56:14.107Z,1008.92
2016-07-06T04:57:14.087Z,1008.95
2016-07-06T04:58:14.061Z,1008.96
2016-07-06T04:59:14.045Z,1008.93
2016-07-06T05:00:14.023Z,1008.95
2016-07-06T05:01:14.002Z,1008.91
2016-07-06T05:02:13.981Z,1008.96
2016-07-06T05:03:13.959Z,1008.97
2016-07-06T05:04:13.939Z,1008.99
2016-07-06T05:05:13.923Z,1009
2016-07-06T05:06:13.899Z,1009.01
2016-07-06T05:07:13.877Z,1008.93
2016-07-06T05:08:13.857Z,1008.98
2016-07-06T05:09:13.835Z,1009.02
2016-07-06T05:10:13.815Z,1009.03
2016-07-06T05:11:13.791Z,1008.97
2016-07-06T05:12:13.773Z,1008.95
2016-07-06T05:13:13.751Z,1008.96
2016-07-06T05:14:13.732Z,1008.82
2016-07-06T05:15:13.711Z,1008.93
2016-07-06T05:16:13.689Z,1008.92
2016-07-06T05:17:13.673Z,1008.85
2016-07-06T05:18:13.659Z,1008.83
2016-07-06T05:19:13.630Z,1008.81
2016-07-06T05:20:13.610Z,1008.9
2016-07-06T05:21:13.590Z,1008.9
2016-07-06T05:22:13.567Z,1008.99
2016-07-06T05:23:13.547Z,1008.99
2016-07-06T05:24:13.528Z,1008.97
2016-07-06T05:25:13.508Z,1008.93
2016-07-06T05:26:13.487Z,1008.99
2016-07-06T05:27:13.467Z,1009.03
2016-07-06T05:28:13.446Z,1008.97
2016-07-06T05:29:13.425Z,1009.02
2016-07-06T05:30:13.406Z,1009.06
2016-07-06T05:31:13.390Z,1009.1
2016-07-06T05:32:13.361Z,1009.08
2016-07-06T05:33:13.345Z,1009.04
2016-07-06T05:34:13.325Z,1008.95
2016-07-06T05:35:13.303Z,1009.02
2016-07-06T05:36:13.283Z,1009.09
2016-07-06T05:37:13.266Z,1009.07
2016-07-06T05:38:13.247Z,1009.14
2016-07-06T05:39:13.229Z,1009.11
2016-07-06T05:40:13.209Z,1009.11
2016-07-06T05:41:13.194Z,1009.15
2016-07-06T05:42:13.170Z,1009.19
2016-07-06T05:43:13.151Z,1009.18
2016-07-06T05:44:13.130Z,1009.23
2016-07-06T05:45:13.200Z,1009.2
2016-07-06T05:46:13.094Z,1009.29
2016-07-06T05:47:13.078Z,1009.31
2016-07-06T05:48:13.058Z,1009.23
2016-07-06T05:49:13.039Z,1009.24
2016-07-06T05:50:13.022Z,1009.25
2016-07-06T05:51:13.002Z,1009.27
2016-07-06T05:52:12.985Z,1009.31
2016-07-06T05:53:12.964Z,1009.34
2016-07-06T05:54:12.947Z,1009.26
2016-07-06T05:55:12.927Z,1009.31
2016-07-06T05:56:12.910Z,1009.33
2016-07-06T05:57:12.892Z,1009.39
2016-07-06T05:58:12.873Z,1009.34
2016-07-06T05:59:12.851Z,1009.34
2016-07-06T06:00:12.841Z,1009.39
2016-07-06T06:01:12.823Z,1009.39
2016-07-06T06:02:12.802Z,1009.41
2016-07-06T06:03:12.783Z,1009.44
2016-07-06T06:04:12.766Z,1009.46
2016-07-06T06:05:12.748Z,1009.44
2016-07-06T06:06:12.729Z,1009.47
2016-07-06T06:07:12.712Z,1009.42
2016-07-06T06:08:12.695Z,1009.5
2016-07-06T06:09:12.677Z,1009.52
2016-07-06T06:10:12.657Z,1009.5
2016-07-06T06:11:12.640Z,1009.53
2016-07-06T06:12:12.621Z,1009.46
2016-07-06T06:13:12.603Z,1009.59
2016-07-06T06:14:12.585Z,1009.52
2016-07-06T06:15:12.568Z,1009.51
2016-07-06T06:16:12.549Z,1009.52
2016-07-06T06:17:12.529Z,1009.5
2016-07-06T06:18:12.513Z,1009.45
2016-07-06T06:19:12.495Z,1009.45
2016-07-06T06:20:12.479Z,1009.47
2016-07-06T06:21:12.460Z,1009.5
2016-07-06T06:22:12.439Z,1009.47
2016-07-06T06:23:12.426Z,1009.43
2016-07-06T06:24:12.407Z,1009.44
2016-07-06T06:25:12.388Z,1009.42
2016-07-06T06:26:12.370Z,1009.46
2016-07-06T06:27:12.354Z,1009.49
2016-07-06T06:28:12.334Z,1009.5
2016-07-06T06:29:12.318Z,1009.43
2016-07-06T06:30:12.301Z,1009.48
2016-07-06T06:31:12.282Z,1009.47
2016-07-06T06:32:12.265Z,1009.5
2016-07-06T06:33:12.248Z,1009.5
2016-07-06T06:34:12.228Z,1009.52
2016-07-06T06:35:12.214Z,1009.49
2016-07-06T06:36:12.197Z,1009.49
2016-07-06T06:37:12.182Z,1009.52
2016-07-06T06:38:12.160Z,1009.49
2016-07-06T06:39:12.147Z,1009.51
2016-07-06T06:40:12.130Z,1009.5
2016-07-06T06:41:12.114Z,1009.5
2016-07-06T06:42:12.098Z,1009.58
2016-07-06T06:43:12.083Z,1009.56
2016-07-06T06:44:12.066Z,1009.6
2016-07-06T06:45:12.051Z,1009.57
2016-07-06T06:46:12.034Z,1009.6
2016-07-06T06:47:12.019Z,1009.59
2016-07-06T06:48:12.005Z,1009.59
2016-07-06T06:49:11.989Z,1009.62
2016-07-06T06:50:11.967Z,1009.55
2016-07-06T06:51:11.959Z,1009.64
2016-07-06T06:52:11.941Z,1009.7
2016-07-06T06:53:11.925Z,1009.67
2016-07-06T06:54:11.905Z,1009.69
2016-07-06T06:55:11.894Z,1009.56
2016-07-06T06:56:11.878Z,1009.72
2016-07-06T06:57:11.857Z,1009.62
2016-07-06T06:58:11.842Z,1009.63
2016-07-06T06:59:11.830Z,1009.58
2016-07-06T07:00:11.811Z,1009.64
2016-07-06T07:01:11.797Z,1009.6
2016-07-06T07:02:11.779Z,1009.6
2016-07-06T07:03:11.762Z,1009.63
2016-07-06T07:04:11.746Z,1009.66
2016-07-06T07:05:11.735Z,1009.65
2016-07-06T07:06:11.718Z,1009.59
2016-07-06T07:07:11.701Z,1009.6
2016-07-06T07:08:11.685Z,1009.67
2016-07-06T07:09:11.676Z,1009.64
2016-07-06T07:10:11.649Z,1009.64
2016-07-06T07:11:11.639Z,1009.68
2016-07-06T07:12:11.621Z,1009.68
2016-07-06T07:13:11.606Z,1009.64
2016-07-06T07:14:11.590Z,1009.64
2016-07-06T07:15:11.575Z,1009.61
2016-07-06T07:16:11.559Z,1009.67
2016-07-06T07:17:11.543Z,1009.63
2016-07-06T07:18:11.527Z,1009.66
2016-07-06T07:19:11.507Z,1009.65
2016-07-06T07:20:11.497Z,1009.79
2016-07-06T07:21:11.482Z,1009.72
2016-07-06T07:22:11.466Z,1009.84
2016-07-06T07:23:11.451Z,1009.8
2016-07-06T07:24:11.435Z,1009.83
2016-07-06T07:25:11.419Z,1009.81
2016-07-06T07:26:11.398Z,1009.76
2016-07-06T07:27:11.391Z,1009.71
2016-07-06T07:28:11.371Z,1009.81
2016-07-06T07:29:11.356Z,1009.69
2016-07-06T07:30:11.341Z,1009.72
2016-07-06T07:31:11.334Z,1009.77
2016-07-06T07:32:11.312Z,1009.74
2016-07-06T07:33:11.295Z,1009.77
2016-07-06T07:34:11.280Z,1009.74
2016-07-06T07:35:11.266Z,1009.75
2016-07-06T07:36:11.252Z,1009.77
2016-07-06T07:37:11.231Z,1009.75
2016-07-06T07:38:11.220Z,1009.81
2016-07-06T07:39:11.206Z,1009.81
2016-07-06T07:40:11.196Z,1009.8
2016-07-06T07:41:11.181Z,1009.75
2016-07-06T07:42:11.166Z,1009.79
2016-07-06T07:43:11.154Z,1009.79
2016-07-06T07:44:11.141Z,1009.77
2016-07-06T07:45:11.127Z,1009.78
2016-07-06T07:46:11.110Z,1009.83
2016-07-06T07:47:11.100Z,1009.81
2016-07-06T07:48:11.086Z,1009.79
2016-07-06T07:49:11.072Z,1009.8
2016-07-06T07:50:11.057Z,1009.82
2016-07-06T07:51:11.045Z,1009.84
2016-07-06T07:52:11.029Z,1009.9
2016-07-06T07:53:11.020Z,1009.84
2016-07-06T07:54:11.004Z,1009.9
2016-07-06T07:55:10.989Z,1009.89
2016-07-06T07:56:10.974Z,1009.91
2016-07-06T07:57:10.963Z,1009.84
2016-07-06T07:58:10.949Z,1009.87
2016-07-06T07:59:10.937Z,1009.86
2016-07-06T08:00:10.922Z,1009.93
2016-07-06T08:01:10.912Z,1009.93
2016-07-06T08:02:10.910Z,1009.88
2016-07-06T08:03:10.888Z,1009.8
2016-07-06T08:04:10.875Z,1009.82
2016-07-06T08:05:10.862Z,1009.8
2016-07-06T08:06:10.851Z,1009.82
2016-07-06T08:07:10.840Z,1009.85
2016-07-06T08:08:10.829Z,1009.75
2016-07-06T08:09:10.817Z,1009.77
2016-07-06T08:10:10.802Z,1009.85
2016-07-06T08:11:10.795Z,1009.85
2016-07-06T08:12:10.784Z,1009.75
2016-07-06T08:13:10.769Z,1009.8
2016-07-06T08:14:10.757Z,1009.74
2016-07-06T08:15:10.757Z,1009.86
2016-07-06T08:16:10.743Z,1009.81
2016-07-06T08:17:10.730Z,1009.77
2016-07-06T08:18:10.710Z,1009.76
2016-07-06T08:19:10.701Z,1009.73
2016-07-06T08:20:10.692Z,1009.75
2016-07-06T08:21:10.674Z,1009.76
2016-07-06T08:22:10.670Z,1009.78
2016-07-06T08:23:10.663Z,1009.78
2016-07-06T08:24:10.647Z,1009.8
2016-07-06T08:25:10.623Z,1009.74
2016-07-06T08:26:10.607Z,1009.69
2016-07-06T08:27:10.634Z,1009.76
2016-07-06T08:28:10.588Z,1009.74
2016-07-06T08:29:10.578Z,1009.7
2016-07-06T08:30:10.564Z,1009.76
2016-07-06T08:31:10.555Z,1009.77
2016-07-06T08:32:10.544Z,1009.78
2016-07-06T08:33:10.559Z,1009.8
2016-07-06T08:34:10.520Z,1009.83
2016-07-06T08:35:10.512Z,1009.82
2016-07-06T08:36:10.496Z,1009.88
2016-07-06T08:37:10.491Z,1009.77
2016-07-06T08:38:10.481Z,1009.82
2016-07-06T08:39:10.469Z,1009.86
2016-07-06T08:40:10.455Z,1009.89
2016-07-06T08:41:10.449Z,1009.85
2016-07-06T08:42:10.439Z,1009.88
2016-07-06T08:43:10.425Z,1009.96
2016-07-06T08:44:10.417Z,1009.93
2016-07-06T08:45:10.405Z,1009.98
2016-07-06T08:46:10.398Z,1009.92
2016-07-06T08:47:10.385Z,1009.88
2016-07-06T08:48:10.375Z,1009.88
2016-07-06T08:49:10.365Z,1009.91
2016-07-06T08:50:10.354Z,1009.9
2016-07-06T08:51:10.343Z,1009.93
2016-07-06T08:52:10.329Z,1009.87
2016-07-06T08:53:10.319Z,1009.89
2016-07-06T08:54:10.307Z,1009.91
2016-07-06T08:55:10.298Z,1009.93
2016-07-06T08:56:10.287Z,1009.97
2016-07-06T08:57:10.274Z,1009.95
2016-07-06T08:58:10.263Z,1009.96
2016-07-06T08:59:10.265Z,1009.88
2016-07-06T09:00:10.238Z,1009.94
2016-07-06T09:01:10.234Z,1009.96
2016-07-06T09:02:10.311Z,1010
2016-07-06T09:03:10.314Z,1009.98
2016-07-06T09:04:10.301Z,1009.92
2016-07-06T09:05:10.314Z,1009.95
2016-07-06T09:06:10.269Z,1009.99
2016-07-06T09:07:10.243Z,1009.97
2016-07-06T09:08:10.148Z,1010
2016-07-06T09:09:10.145Z,1009.95
2016-07-06T09:10:10.123Z,1009.96
2016-07-06T09:11:10.129Z,1009.96
2016-07-06T09:12:10.104Z,1009.98
2016-07-06T09:13:10.091Z,1009.89
2016-07-06T09:14:10.092Z,1009.97
2016-07-06T09:15:10.078Z,1010.03
2016-07-06T09:16:10.073Z,1009.97
2016-07-06T09:17:10.057Z,1009.98
2016-07-06T09:18:10.037Z,1010.02
2016-07-06T09:19:10.026Z,1009.99
2016-07-06T09:20:10.035Z,1010
2016-07-06T09:21:10.006Z,1010.04
2016-07-06T09:22:10.014Z,1009.96
2016-07-06T09:23:09.985Z,1010.03
2016-07-06T09:24:09.986Z,1010.11
2016-07-06T09:25:09.977Z,1010.1
2016-07-06T09:26:09.970Z,1010.04
2016-07-06T09:27:09.953Z,1010.06
2016-07-06T09:28:09.948Z,1010.05
2016-07-06T09:29:09.953Z,1010.06
2016-07-06T09:30:09.928Z,1010.1
2016-07-06T09:31:09.920Z,1010.09
2016-07-06T09:32:09.924Z,1010.06
2016-07-06T09:33:09.907Z,1010.07
2016-07-06T09:34:09.913Z,1010.09
2016-07-06T09:35:09.901Z,1010.12
2016-07-06T09:36:09.879Z,1010.02
2016-07-06T09:37:09.888Z,1010.1
2016-07-06T09:38:09.864Z,1010.17
2016-07-06T09:39:09.880Z,1010.13
2016-07-06T09:40:09.877Z,1010.16
2016-07-06T09:41:09.845Z,1010.18
2016-07-06T09:42:09.850Z,1010.27
2016-07-06T09:43:09.868Z,1010.23
2016-07-06T09:44:09.859Z,1010.28
2016-07-06T09:45:09.940Z,1010.33
2016-07-06T09:46:09.856Z,1010.25
2016-07-06T09:47:09.820Z,1010.31
2016-07-06T09:48:09.903Z,1010.27
2016-07-06T09:49:09.893Z,1010.29
2016-07-06T09:50:09.890Z,1010.3
2016-07-06T09:51:09.857Z,1010.31
2016-07-06T09:52:09.864Z,1010.32
2016-07-06T09:53:09.786Z,1010.32
2016-07-06T09:54:09.736Z,1010.3
2016-07-06T09:55:09.711Z,1010.3
2016-07-06T09:56:09.721Z,1010.35
2016-07-06T09:57:09.696Z,1010.37
2016-07-06T09:58:09.680Z,1010.36
2016-07-06T09:59:09.665Z,1010.41
2016-07-06T10:00:09.653Z,1010.42
2016-07-06T10:01:09.643Z,1010.44
2016-07-06T10:02:09.637Z,1010.42
2016-07-06T10:03:09.631Z,1010.5
2016-07-06T10:04:09.616Z,1010.49
2016-07-06T10:05:09.596Z,1010.44
2016-07-06T10:06:09.598Z,1010.46
2016-07-06T10:07:09.569Z,1010.49
2016-07-06T10:08:09.558Z,1010.43
2016-07-06T10:09:09.549Z,1010.43
2016-07-06T10:10:09.540Z,1010.49
2016-07-06T10:11:09.520Z,1010.45
2016-07-06T10:12:09.513Z,1010.37
2016-07-06T10:13:09.507Z,1010.44
2016-07-06T10:14:09.499Z,1010.35
2016-07-06T10:15:09.481Z,1010.41
2016-07-06T10:16:09.475Z,1010.29
2016-07-06T10:17:09.449Z,1010.3
2016-07-06T10:18:09.440Z,1010.32
2016-07-06T10:19:09.430Z,1010.39
2016-07-06T10:20:09.416Z,1010.43
2016-07-06T10:21:09.402Z,1010.41
2016-07-06T10:22:09.395Z,1010.43
2016-07-06T10:23:09.385Z,1010.4
2016-07-06T10:24:09.363Z,1010.45
2016-07-06T10:25:09.351Z,1010.47
2016-07-06T10:26:09.349Z,1010.38
2016-07-06T10:27:09.356Z,1010.41
2016-07-06T10:28:09.322Z,1010.52
2016-07-06T10:29:09.327Z,1010.43
2016-07-06T10:30:09.310Z,1010.54
2016-07-06T10:31:09.307Z,1010.46
2016-07-06T10:32:09.295Z,1010.43
2016-07-06T10:33:09.285Z,1010.5
2016-07-06T10:34:09.271Z,1010.42
2016-07-06T10:35:09.265Z,1010.45
2016-07-06T10:36:09.237Z,1010.47
2016-07-06T10:37:09.233Z,1010.52
2016-07-06T10:38:09.219Z,1010.48
2016-07-06T10:39:09.208Z,1010.44
2016-07-06T10:40:09.202Z,1010.45
2016-07-06T10:41:09.313Z,1010.43
2016-07-06T10:42:09.296Z,1010.41
2016-07-06T10:43:09.173Z,1010.46
2016-07-06T10:44:09.157Z,1010.46
2016-07-06T10:45:09.161Z,1010.48
2016-07-06T10:46:09.150Z,1010.53
2016-07-06T10:47:09.132Z,1010.65
2016-07-06T10:48:09.123Z,1010.55
2016-07-06T10:49:09.116Z,1010.5
2016-07-06T10:50:09.108Z,1010.61
2016-07-06T10:51:09.097Z,1010.47
2016-07-06T10:52:09.088Z,1010.57
2016-07-06T10:53:09.080Z,1010.6
2016-07-06T10:54:09.070Z,1010.64
2016-07-06T10:55:09.060Z,1010.58
2016-07-06T10:56:09.327Z,1010.51
2016-07-06T10:57:09.039Z,1010.54
2016-07-06T10:58:09.028Z,1010.58
2016-07-06T10:59:09.017Z,1010.58
2016-07-06T11:00:09.007Z,1010.58
2016-07-06T11:01:08.995Z,1010.52
2016-07-06T11:02:08.984Z,1010.54
2016-07-06T11:03:08.973Z,1010.47
2016-07-06T11:04:08.962Z,1010.51
2016-07-06T11:05:08.954Z,1010.53
2016-07-06T11:06:08.944Z,1010.48
2016-07-06T11:07:08.934Z,1010.5
2016-07-06T11:08:08.926Z,1010.56
2016-07-06T11:09:08.918Z,1010.44
2016-07-06T11:10:08.910Z,1010.48
2016-07-06T11:11:08.903Z,1010.5
2016-07-06T11:12:08.896Z,1010.47
2016-07-06T11:13:08.892Z,1010.41
2016-07-06T11:14:08.882Z,1010.43
2016-07-06T11:15:08.877Z,1010.49
2016-07-06T11:16:08.870Z,1010.49
2016-07-06T11:17:08.865Z,1010.51
2016-07-06T11:18:08.865Z,1010.51
2016-07-06T11:19:08.855Z,1010.52
2016-07-06T11:20:08.850Z,1010.5
2016-07-06T11:21:08.843Z,1010.56
2016-07-06T11:22:08.838Z,1010.48
2016-07-06T11:23:08.833Z,1010.53
2016-07-06T11:24:08.826Z,1010.55
2016-07-06T11:25:08.821Z,1010.63
2016-07-06T11:26:08.815Z,1010.6
2016-07-06T11:27:08.810Z,1010.52
2016-07-06T11:28:08.803Z,1010.54
2016-07-06T11:29:08.800Z,1010.5
2016-07-06T11:30:08.794Z,1010.56
2016-07-06T11:31:08.788Z,1010.45
2016-07-06T11:32:08.778Z,1010.52
2016-07-06T11:33:08.773Z,1010.51
2016-07-06T11:34:08.771Z,1010.47
2016-07-06T11:35:08.760Z,1010.52
2016-07-06T11:36:08.759Z,1010.43
2016-07-06T11:37:08.750Z,1010.53
2016-07-06T11:38:08.744Z,1010.45
2016-07-06T11:39:08.744Z,1010.44
2016-07-06T11:40:08.738Z,1010.43
2016-07-06T11:41:08.732Z,1010.39
2016-07-06T11:42:08.726Z,1010.42
2016-07-06T11:43:08.720Z,1010.31
2016-07-06T11:44:08.716Z,1010.33
2016-07-06T11:45:08.712Z,1010.26
2016-07-06T11:46:08.709Z,1010.31
2016-07-06T11:47:08.705Z,1010.29
2016-07-06T11:48:08.701Z,1010.31
2016-07-06T11:49:08.698Z,1010.26
2016-07-06T11:50:08.694Z,1010.47
2016-07-06T11:51:08.691Z,1010.41
2016-07-06T11:52:08.687Z,1010.33
2016-07-06T11:53:08.681Z,1010.39
2016-07-06T11:54:08.679Z,1010.34
2016-07-06T11:55:08.673Z,1010.41
2016-07-06T11:56:08.669Z,1010.31
2016-07-06T11:57:08.665Z,1010.37
2016-07-06T11:58:08.662Z,1010.34
2016-07-06T11:59:08.656Z,1010.39
2016-07-06T12:00:08.652Z,1010.4
2016-07-06T12:01:08.648Z,1010.4
2016-07-06T12:02:08.645Z,1010.54
2016-07-06T12:03:08.642Z,1010.53
2016-07-06T12:04:08.637Z,1010.43
2016-07-06T12:05:08.627Z,1010.53
2016-07-06T12:06:08.621Z,1010.48
2016-07-06T12:07:08.617Z,1010.54
2016-07-06T12:08:08.605Z,1010.39